RKSS/GMP METAR and TAF weather

Enter ICAO airport designator
Station Type Date Time Source
RKSS METAR 2019/05/26 23:00 UTC NOAA

RKSS 262300Z 12008KT 4000 -RA FEW015 BKN030 OVC070 18/17 Q1004 NOSIG


Station Type Date Time Source
RKSS Decoded METAR 2019/05/26 23:00 UTC NOAA

Seoul / Kimp'O International Airport, Korea, South (RKSS) 37-33N 126-48E 18M
May 26, 2019 - 07:00 PM EDT / 2019.05.26 2300 UTC
Wind: from the ESE (120 degrees) at 9 MPH (8 KT):0
Visibility: 2 mile(s):0
Sky conditions: overcast
Weather: light rain
Temperature: 64 F (18 C)
Dew Point: 62 F (17 C)
Relative Humidity: 93%
Pressure (altimeter): 29.65 in. Hg (1004 hPa)
ob: RKSS 262300Z 12008KT 4000 -RA FEW015 BKN030 OVC070 18/17 Q1004 NOSIG
cycle: 23

Station Type Date Time Source
RKSS TAF 2019/05/26 18:18 UTC NOAA

TAF RKSS 261700Z 2618/2724 15012KT 6000 SCT030 BKN120 TN17/2620Z TX21/2704Z TN11/2720Z
TEMPO 2618/2622 -RA FEW010 BKN030 OVC100
BECMG 2623/2624 16015G30KT 4200 RA SCT005 BKN020 OVC080
TEMPO 2703/2708 24015G25KT 2200
TEMPO 2709/2713 31012KT 6000 NSW FEW010 SCT030
BECMG 2714/2715 33008KT 6000 NSW NSC

Example: see airport list